Time;durP1;ratioP1;P1;durP2;ratioP2;P2;SDS_P1;SDS_P2;PMS_P1;PMS_P2;Temp;Humidity;BMP_temperature;BMP_pressure;BME280_temperature;BME280_humidity;BME280_pressure;Samples;Min_cycle;Max_cycle;Signal;HPM_P1;HPM_P2
2021/07/14 00:00:12;;;;;;;12.73;3.05;;;22.60;96.70;;;;;;5056448;28;20094;-72
2021/07/14 00:02:40;;;;;;;13.55;3.22;;;22.60;96.70;;;;;;5037980;28;20055;-72
2021/07/14 00:05:11;;;;;;;12.43;2.95;;;22.50;96.70;;;;;;5060362;28;20048;-72
2021/07/14 00:07:40;;;;;;;13.70;2.90;;;22.50;96.70;;;;;;5039727;28;20049;-72
2021/07/14 00:10:11;;;;;;;12.65;2.72;;;22.50;96.70;;;;;;5037263;28;20070;-72
2021/07/14 00:12:58;;;;;;;13.68;2.75;;;22.40;96.70;;;;;;5056999;28;20055;-72
2021/07/14 00:23:20;;;;;;;16.05;2.97;;;22.30;96.70;;;;;;5058775;28;20131;-72
2021/07/14 00:25:49;;;;;;;12.52;2.75;;;22.20;96.70;;;;;;5056537;28;20682;-72
2021/07/14 00:28:18;;;;;;;10.85;2.45;;;22.20;96.70;;;;;;5053125;28;20055;-72
2021/07/14 00:30:52;;;;;;;13.57;2.78;;;22.10;96.70;;;;;;5060696;28;20069;-72
2021/07/14 00:33:21;;;;;;;15.88;2.95;;;22.10;96.70;;;;;;5042937;28;20052;-72
2021/07/14 00:35:50;;;;;;;10.10;2.90;;;22.00;96.70;;;;;;5060243;28;20040;-72
2021/07/14 00:38:18;;;;;;;11.38;2.65;;;22.00;96.70;;;;;;5058472;28;20036;-72
2021/07/14 00:40:47;;;;;;;12.55;2.67;;;22.00;96.70;;;;;;5056228;28;20063;-72
2021/07/14 00:43:15;;;;;;;13.52;2.75;;;22.00;96.70;;;;;;5065545;28;20051;-72
2021/07/14 00:45:43;;;;;;;18.60;3.55;;;22.00;96.70;;;;;;5045147;28;20046;-72
2021/07/14 00:48:14;;;;;;;12.07;3.10;;;21.90;96.70;;;;;;5060659;28;20406;-72
2021/07/14 00:50:43;;;;;;;14.95;3.28;;;21.90;96.70;;;;;;5044745;28;20076;-72
2021/07/14 00:53:12;;;;;;;12.32;3.05;;;21.90;96.70;;;;;;5063107;28;20287;-72
2021/07/14 00:55:41;;;;;;;16.70;3.53;;;21.90;96.70;;;;;;5063362;28;20123;-72
2021/07/14 00:58:09;;;;;;;15.75;3.03;;;21.90;96.70;;;;;;5064926;28;20076;-72
2021/07/14 01:01:03;;;;;;;10.50;2.53;;;21.90;96.70;;;;;;5040997;28;20383;-72
2021/07/14 01:03:35;;;;;;;12.35;2.90;;;21.80;96.70;;;;;;5065026;28;20904;-72
2021/07/14 01:06:08;;;;;;;9.57;2.47;;;21.80;96.70;;;;;;5043537;28;20110;-72
2021/07/14 01:08:46;;;;;;;9.35;2.10;;;21.70;96.70;;;;;;5043130;28;20045;-72
2021/07/14 01:11:19;;;;;;;12.60;2.20;;;21.60;96.70;;;;;;5065870;28;20446;-72
2021/07/14 01:13:56;;;;;;;12.63;2.67;;;21.60;96.70;;;;;;5064138;28;20082;-72
2021/07/14 01:16:27;;;;;;;12.73;3.10;;;21.50;96.70;;;;;;5059155;28;20107;-72
2021/07/14 01:19:04;;;;;;;13.00;3.15;;;21.40;96.70;;;;;;5046183;28;20032;-72
2021/07/14 01:21:36;;;;;;;14.77;2.85;;;21.40;96.70;;;;;;5060132;28;20036;-72
2021/07/14 01:24:11;;;;;;;8.48;2.33;;;21.40;96.70;;;;;;5061973;28;20072;-72
2021/07/14 01:27:06;;;;;;;14.15;3.40;;;21.40;96.70;;;;;;5065814;28;20045;-72
2021/07/14 01:29:41;;;;;;;13.35;2.70;;;21.40;96.70;;;;;;5061569;28;20045;-72
2021/07/14 01:32:11;;;;;;;15.52;2.65;;;21.40;96.70;;;;;;5063768;28;20086;-72
2021/07/14 01:34:43;;;;;;;13.07;2.85;;;21.50;96.70;;;;;;5061012;28;20080;-72
2021/07/14 01:37:15;;;;;;;15.82;2.38;;;21.50;96.70;;;;;;5048278;28;20048;-71
2021/07/14 01:39:45;;;;;;;11.57;2.85;;;21.50;96.70;;;;;;5064395;28;20053;-72
2021/07/14 01:42:16;;;;;;;16.10;2.90;;;21.60;96.70;;;;;;5059037;28;20055;-72
2021/07/14 01:44:45;;;;;;;17.45;3.25;;;21.60;96.70;;;;;;5043457;28;20048;-72
2021/07/14 01:47:14;;;;;;;10.70;2.40;;;21.60;96.70;;;;;;5046066;28;20032;-72
2021/07/14 01:49:44;;;;;;;13.82;2.55;;;21.70;96.70;;;;;;5063403;28;20687;-72
2021/07/14 01:52:16;;;;;;;13.55;3.03;;;21.70;96.70;;;;;;5058737;28;20048;-72
2021/07/14 01:54:48;;;;;;;13.93;3.08;;;21.60;96.70;;;;;;5045177;28;20040;-72
2021/07/14 01:57:20;;;;;;;14.52;3.42;;;21.50;96.70;;;;;;5056672;28;20040;-72
2021/07/14 01:59:50;;;;;;;11.15;2.80;;;21.50;96.70;;;;;;5063838;28;20072;-72
2021/07/14 02:02:23;;;;;;;14.73;3.25;;;21.50;96.70;;;;;;5050773;28;20040;-72
2021/07/14 02:04:53;;;;;;;17.00;3.03;;;21.40;96.70;;;;;;5061065;28;20044;-72
2021/07/14 02:07:25;;;;;;;17.90;3.08;;;21.40;96.70;;;;;;5062635;28;20357;-72
2021/07/14 02:09:54;;;;;;;13.30;2.45;;;21.40;96.70;;;;;;5047214;28;20123;-72
2021/07/14 02:12:25;;;;;;;15.20;3.15;;;21.40;96.70;;;;;;5047132;28;20040;-71
2021/07/14 02:14:58;;;;;;;12.32;2.45;;;21.40;96.70;;;;;;5063671;28;20053;-72
2021/07/14 02:17:30;;;;;;;14.55;2.80;;;21.40;96.70;;;;;;5057344;28;20044;-72
2021/07/14 02:20:02;;;;;;;12.68;2.72;;;21.50;96.70;;;;;;5046139;28;20055;-71
2021/07/14 02:22:30;;;;;;;20.00;3.75;;;21.50;96.70;;;;;;5030529;28;20070;-70
2021/07/14 02:24:59;;;;;;;13.13;2.95;;;21.50;96.70;;;;;;5063005;28;20076;-71
2021/07/14 02:27:28;;;;;;;10.88;2.05;;;21.50;96.70;;;;;;5042227;28;20040;-71
2021/07/14 02:29:57;;;;;;;9.77;3.08;;;21.40;96.70;;;;;;5064140;28;20043;-71
2021/07/14 02:32:26;;;;;;;9.70;2.15;;;21.30;96.70;;;;;;5060880;28;20043;-72
2021/07/14 02:34:56;;;;;;;12.63;2.83;;;21.30;96.70;;;;;;5047952;28;20595;-71
2021/07/14 02:37:30;;;;;;;10.60;2.47;;;21.20;96.70;;;;;;5063273;28;20048;-71
2021/07/14 02:40:00;;;;;;;8.27;2.20;;;21.20;96.70;;;;;;5038179;28;20044;-71
2021/07/14 02:42:32;;;;;;;8.50;1.65;;;21.20;96.70;;;;;;5032298;28;20037;-70
2021/07/14 02:45:05;;;;;;;10.20;1.55;;;21.20;96.70;;;;;;5042137;28;20113;-71
2021/07/14 02:47:38;;;;;;;10.50;1.70;;;21.10;96.70;;;;;;5060274;28;20037;-71
2021/07/14 02:50:08;;;;;;;10.80;2.10;;;21.20;96.70;;;;;;5042769;28;20067;-70
2021/07/14 02:52:41;;;;;;;11.02;1.67;;;21.20;96.70;;;;;;5060368;28;20048;-71
2021/07/14 02:55:15;;;;;;;8.52;1.88;;;21.10;96.70;;;;;;5058825;28;20068;-71
2021/07/14 02:57:48;;;;;;;6.78;1.60;;;21.10;96.70;;;;;;5053487;28;20131;-71
2021/07/14 03:00:17;;;;;;;7.90;1.77;;;21.10;96.70;;;;;;5042762;28;20151;-71
2021/07/14 03:02:47;;;;;;;8.95;1.75;;;21.10;96.70;;;;;;5045209;28;20049;-71
2021/07/14 03:05:16;;;;;;;8.10;1.85;;;21.10;96.70;;;;;;5052999;28;20418;-71
2021/07/14 03:07:46;;;;;;;7.65;1.70;;;21.10;96.70;;;;;;5058219;28;20045;-71
2021/07/14 03:10:18;;;;;;;11.23;2.40;;;21.10;96.70;;;;;;5054027;28;20040;-71
2021/07/14 03:12:52;;;;;;;9.20;1.50;;;21.10;96.70;;;;;;5045682;28;20036;-71
2021/07/14 03:15:21;;;;;;;7.18;1.85;;;21.10;96.70;;;;;;5041759;28;20151;-72
2021/07/14 03:17:51;;;;;;;9.13;1.50;;;21.10;96.70;;;;;;5041932;28;20691;-71
2021/07/14 03:20:20;;;;;;;7.70;1.80;;;21.10;96.70;;;;;;5038762;28;20045;-71
2021/07/14 03:22:50;;;;;;;8.32;1.90;;;21.10;96.70;;;;;;5040510;28;20053;-71
2021/07/14 03:25:20;;;;;;;7.00;1.52;;;21.20;96.70;;;;;;5042146;28;20052;-71
2021/07/14 03:27:51;;;;;;;12.48;1.80;;;21.20;96.70;;;;;;5036759;28;20445;-72
2021/07/14 03:30:22;;;;;;;11.82;1.70;;;21.20;96.70;;;;;;5040553;28;20060;-71
2021/07/14 03:32:50;;;;;;;7.85;1.52;;;21.20;96.70;;;;;;5039483;28;20037;-72
2021/07/14 03:35:19;;;;;;;7.60;1.38;;;21.20;96.70;;;;;;5032412;28;20045;-71
2021/07/14 03:37:48;;;;;;;9.35;1.40;;;21.20;96.70;;;;;;5036702;28;20095;-72
2021/07/14 03:40:18;;;;;;;8.65;1.58;;;21.10;96.70;;;;;;5043156;28;20044;-72
2021/07/14 03:42:50;;;;;;;6.88;1.30;;;21.10;96.70;;;;;;5040299;28;20029;-72
2021/07/14 03:45:20;;;;;;;6.88;1.60;;;21.10;96.70;;;;;;5043256;28;20501;-72
2021/07/14 03:47:50;;;;;;;11.43;1.70;;;21.10;96.70;;;;;;5037768;28;20043;-71
2021/07/14 03:50:20;;;;;;;8.07;1.92;;;21.10;96.70;;;;;;5039205;28;20438;-72
2021/07/14 03:52:50;;;;;;;8.40;1.63;;;21.10;96.70;;;;;;5036129;28;20052;-71
2021/07/14 03:55:19;;;;;;;8.93;1.75;;;21.10;96.70;;;;;;5039418;28;20049;-72
2021/07/14 03:57:48;;;;;;;6.72;1.75;;;21.20;96.70;;;;;;5039442;28;20098;-72
2021/07/14 04:00:18;;;;;;;10.68;1.80;;;21.10;96.70;;;;;;5040180;28;20045;-72
2021/07/14 04:02:48;;;;;;;8.07;1.52;;;21.10;96.70;;;;;;5040644;28;20546;-72
2021/07/14 04:05:16;;;;;;;9.55;1.40;;;21.20;96.70;;;;;;5041149;28;20041;-72
2021/07/14 04:07:46;;;;;;;10.75;1.90;;;21.10;96.70;;;;;;5038427;28;20084;-72
2021/07/14 04:10:15;;;;;;;9.88;1.67;;;21.20;96.70;;;;;;5040625;28;20049;-72
2021/07/14 04:12:45;;;;;;;9.50;1.60;;;21.20;96.70;;;;;;5020410;28;20052;-72
2021/07/14 04:15:13;;;;;;;10.75;2.22;;;21.20;96.70;;;;;;5042691;28;20045;-72
2021/07/14 04:17:44;;;;;;;8.50;1.77;;;21.10;96.70;;;;;;5040184;28;20045;-71
2021/07/14 04:20:13;;;;;;;8.27;1.80;;;21.20;96.70;;;;;;5043680;28;20037;-72
2021/07/14 04:22:42;;;;;;;15.65;2.08;;;21.20;96.70;;;;;;5040274;28;20048;-71
2021/07/14 04:25:12;;;;;;;8.82;1.75;;;21.20;96.70;;;;;;5046106;28;20120;-72
2021/07/14 04:27:40;;;;;;;11.63;2.00;;;21.30;96.70;;;;;;5042443;28;20048;-71
2021/07/14 04:30:10;;;;;;;12.65;2.10;;;21.40;96.70;;;;;;5048369;28;20140;-72
2021/07/14 04:32:38;;;;;;;7.05;1.45;;;21.50;96.70;;;;;;5044108;28;20398;-71
2021/07/14 04:35:11;;;;;;;8.40;1.83;;;21.60;96.70;;;;;;5057165;28;20051;-72
2021/07/14 04:37:42;;;;;;;18.58;3.08;;;21.60;96.70;;;;;;5037005;28;20084;-72
2021/07/14 04:40:11;;;;;;;11.38;2.85;;;21.60;96.70;;;;;;5034384;28;20037;-71
2021/07/14 04:42:39;;;;;;;15.50;2.97;;;21.70;96.70;;;;;;5040805;28;20463;-72
2021/07/14 04:45:08;;;;;;;14.05;2.55;;;21.70;96.70;;;;;;5040630;28;20175;-72
2021/07/14 04:47:37;;;;;;;13.20;2.45;;;21.80;96.70;;;;;;5040085;28;20041;-72
2021/07/14 04:50:08;;;;;;;7.18;1.75;;;21.80;96.70;;;;;;5051426;28;20045;-72
2021/07/14 04:52:36;;;;;;;7.57;2.15;;;21.80;96.70;;;;;;5053304;28;20049;-72
2021/07/14 04:55:07;;;;;;;12.15;2.05;;;21.80;96.70;;;;;;5043746;28;20045;-72
2021/07/14 04:57:35;;;;;;;9.00;2.38;;;21.80;96.70;;;;;;5040743;28;20478;-72
2021/07/14 05:00:06;;;;;;;9.40;2.25;;;21.90;96.70;;;;;;5042116;28;20071;-72
2021/07/14 05:02:35;;;;;;;8.48;2.08;;;21.90;96.70;;;;;;5043616;28;20123;-72
2021/07/14 05:05:04;;;;;;;10.55;2.13;;;22.00;96.70;;;;;;5040727;28;20068;-72
2021/07/14 05:07:34;;;;;;;9.40;2.03;;;22.00;96.70;;;;;;5037201;28;20624;-72
2021/07/14 05:10:03;;;;;;;6.85;1.83;;;22.00;96.70;;;;;;5038897;28;20033;-72
2021/07/14 05:12:31;;;;;;;8.85;1.80;;;22.00;96.70;;;;;;5041425;28;20037;-72
2021/07/14 05:14:59;;;;;;;6.07;1.92;;;22.10;96.70;;;;;;5040532;28;20057;-72
2021/07/14 05:17:28;;;;;;;8.70;2.15;;;22.10;96.70;;;;;;5045218;28;20048;-72
2021/07/14 05:19:56;;;;;;;9.25;2.38;;;22.20;96.70;;;;;;5039473;28;20041;-72
2021/07/14 05:22:25;;;;;;;9.85;2.30;;;22.20;96.70;;;;;;5040190;28;20044;-72
2021/07/14 05:24:55;;;;;;;12.48;2.35;;;22.30;96.70;;;;;;5043973;28;20040;-72
2021/07/14 05:27:23;;;;;;;8.30;2.17;;;22.30;96.70;;;;;;5042722;28;20040;-72
2021/07/14 05:29:52;;;;;;;8.02;1.77;;;22.30;96.70;;;;;;5040578;28;20525;-72
2021/07/14 05:32:21;;;;;;;9.57;1.80;;;22.30;96.70;;;;;;5046333;28;20041;-72
2021/07/14 05:34:49;;;;;;;8.13;2.05;;;22.30;96.70;;;;;;5042294;28;20045;-72
2021/07/14 05:37:17;;;;;;;11.45;2.55;;;22.30;96.70;;;;;;5043999;28;20124;-72
2021/07/14 05:39:45;;;;;;;9.77;2.22;;;22.40;96.70;;;;;;5039148;28;20036;-72
2021/07/14 05:42:15;;;;;;;10.40;2.42;;;22.40;96.70;;;;;;5042354;28;20051;-72
2021/07/14 05:44:45;;;;;;;9.95;2.20;;;22.40;96.70;;;;;;5037408;28;20132;-72
2021/07/14 05:47:13;;;;;;;10.50;2.50;;;22.40;96.70;;;;;;5040369;28;20048;-72
2021/07/14 05:49:43;;;;;;;7.63;1.95;;;22.50;96.70;;;;;;5043362;28;20037;-72
2021/07/14 05:52:14;;;;;;;9.73;2.53;;;22.60;96.70;;;;;;5044280;28;20056;-71
2021/07/14 05:54:42;;;;;;;7.57;1.80;;;22.70;96.70;;;;;;5045355;28;20037;-72
2021/07/14 05:57:11;;;;;;;9.10;1.90;;;22.80;96.70;;;;;;5039591;28;20041;-74
2021/07/14 05:59:41;;;;;;;7.82;1.85;;;23.00;96.70;;;;;;5037745;28;20051;-74
2021/07/14 06:02:09;;;;;;;10.00;1.92;;;23.00;96.70;;;;;;5016267;28;20441;-74
2021/07/14 06:04:38;;;;;;;12.80;2.13;;;23.00;96.70;;;;;;5040882;28;20486;-74
2021/07/14 06:07:07;;;;;;;7.43;1.70;;;23.10;96.70;;;;;;5041558;28;20410;-74
2021/07/14 06:09:35;;;;;;;8.90;1.88;;;23.10;96.70;;;;;;5040873;28;20393;-75
2021/07/14 06:12:05;;;;;;;10.20;2.03;;;23.20;96.70;;;;;;5039697;28;20041;-75
2021/07/14 06:14:33;;;;;;;11.43;2.40;;;23.20;96.70;;;;;;5042834;28;20390;-74
2021/07/14 06:17:03;;;;;;;8.35;2.10;;;23.30;96.70;;;;;;5057665;28;20128;-73
2021/07/14 06:19:32;;;;;;;7.85;1.55;;;23.30;96.70;;;;;;5044145;28;20041;-73
2021/07/14 06:22:02;;;;;;;7.35;1.63;;;23.20;96.70;;;;;;5064099;28;20147;-72
2021/07/14 06:24:30;;;;;;;9.05;2.03;;;23.20;96.70;;;;;;5063638;28;20055;-72
2021/07/14 06:27:11;;;;;;;8.43;1.60;;;23.10;96.70;;;;;;5046993;28;20049;-72
2021/07/14 06:29:39;;;;;;;8.95;1.58;;;23.10;96.70;;;;;;5057584;28;20048;-72
2021/07/14 06:32:29;;;;;;;9.02;1.52;;;22.90;96.70;;;;;;5058064;28;20041;-72
2021/07/14 06:34:57;;;;;;;6.25;1.50;;;22.80;96.70;;;;;;5060757;28;20045;-72
2021/07/14 06:37:26;;;;;;;6.47;1.80;;;22.80;96.70;;;;;;5057058;28;20033;-73
2021/07/14 06:39:54;;;;;;;7.75;2.10;;;22.70;96.70;;;;;;5059088;28;20521;-73
2021/07/14 06:42:23;;;;;;;7.55;1.75;;;22.60;96.70;;;;;;5060386;28;20597;-72
2021/07/14 06:44:51;;;;;;;7.15;1.85;;;22.50;96.70;;;;;;5063950;28;20048;-73
2021/07/14 06:47:19;;;;;;;12.25;1.85;;;22.30;96.70;;;;;;5055774;28;20050;-72
2021/07/14 06:49:48;;;;;;;10.75;1.65;;;22.20;96.70;;;;;;5061423;28;20046;-72
2021/07/14 06:52:16;;;;;;;9.55;2.33;;;22.20;96.70;;;;;;5061090;28;20040;-71
2021/07/14 06:54:44;;;;;;;5.88;1.70;;;22.20;96.70;;;;;;5044278;28;20040;-73
2021/07/14 06:57:13;;;;;;;12.93;2.28;;;22.10;96.70;;;;;;5040029;28;20047;-72
2021/07/14 06:59:41;;;;;;;5.25;1.48;;;22.00;96.70;;;;;;5064650;28;20041;-72
2021/07/14 07:02:09;;;;;;;8.30;1.65;;;21.90;96.70;;;;;;5060306;28;20407;-71
2021/07/14 07:04:37;;;;;;;13.57;2.72;;;21.90;96.70;;;;;;5060582;28;20098;-71
2021/07/14 07:07:07;;;;;;;13.85;2.20;;;21.90;96.70;;;;;;5044628;28;20383;-71
2021/07/14 07:09:35;;;;;;;8.95;1.77;;;21.90;96.70;;;;;;5061912;28;20078;-71
2021/07/14 07:12:03;;;;;;;8.23;1.90;;;22.00;96.70;;;;;;5055594;28;20106;-71
2021/07/14 07:14:31;;;;;;;8.45;2.05;;;22.00;96.70;;;;;;5020977;28;20048;-71
2021/07/14 07:16:59;;;;;;;9.18;1.90;;;22.00;96.70;;;;;;5044629;28;20045;-71
2021/07/14 07:19:27;;;;;;;7.90;1.83;;;21.90;96.70;;;;;;5039277;28;20124;-71
2021/07/14 07:21:55;;;;;;;7.53;1.85;;;22.00;96.70;;;;;;5061865;28;20279;-71
2021/07/14 07:24:25;;;;;;;5.93;1.45;;;21.90;96.70;;;;;;5037596;28;20045;-71
2021/07/14 07:26:53;;;;;;;9.13;2.03;;;21.80;96.70;;;;;;5062152;28;20045;-72
2021/07/14 07:29:22;;;;;;;8.65;1.95;;;21.80;96.70;;;;;;5057868;28;20555;-71
2021/07/14 07:31:51;;;;;;;7.88;1.85;;;21.90;96.70;;;;;;5048173;28;20059;-71
2021/07/14 07:34:22;;;;;;;8.93;2.03;;;21.90;96.70;;;;;;5038826;28;20041;-71
2021/07/14 07:36:50;;;;;;;7.93;1.35;;;21.90;96.70;;;;;;5062935;28;20033;-71
2021/07/14 07:39:19;;;;;;;11.77;2.50;;;21.80;96.70;;;;;;5059412;28;20049;-71
2021/07/14 07:41:49;;;;;;;11.02;2.30;;;21.80;96.70;;;;;;5044635;28;20484;-71
2021/07/14 07:44:17;;;;;;;10.90;2.60;;;21.80;96.70;;;;;;5060013;28;20044;-71
2021/07/14 07:46:45;;;;;;;11.00;2.42;;;21.60;96.70;;;;;;5061118;28;20123;-72
2021/07/14 07:49:13;;;;;;;7.63;1.65;;;21.60;96.70;;;;;;5060087;28;20059;-71
2021/07/14 07:51:41;;;;;;;6.78;1.98;;;21.60;96.70;;;;;;5024370;28;20048;-71
2021/07/14 07:54:09;;;;;;;9.50;1.88;;;21.60;96.70;;;;;;5058897;28;20049;-71
2021/07/14 07:56:37;;;;;;;9.60;2.10;;;21.60;96.70;;;;;;5061908;28;20040;-71
2021/07/14 07:59:07;;;;;;;10.40;1.75;;;21.70;96.70;;;;;;5041109;28;20036;-72
2021/07/14 08:01:36;;;;;;;9.63;2.03;;;21.70;96.70;;;;;;5055100;28;20033;-71
2021/07/14 08:04:04;;;;;;;6.13;1.80;;;21.70;96.70;;;;;;5045239;28;20040;-72
2021/07/14 08:06:33;;;;;;;7.75;1.98;;;21.70;96.70;;;;;;5027974;28;20041;-71
2021/07/14 08:09:01;;;;;;;9.30;1.75;;;21.90;96.70;;;;;;5058900;28;20055;-72
2021/07/14 08:11:29;;;;;;;9.27;2.40;;;22.00;96.70;;;;;;5061721;28;20375;-72
2021/07/14 08:13:59;;;;;;;9.43;1.63;;;22.20;96.70;;;;;;5059709;28;20037;-73
2021/07/14 08:16:29;;;;;;;8.02;1.52;;;22.30;96.70;;;;;;5043890;28;20124;-72
2021/07/14 08:18:58;;;;;;;5.47;1.50;;;22.40;96.70;;;;;;5059229;28;20127;-72
2021/07/14 08:21:26;;;;;;;12.13;2.03;;;22.50;96.70;;;;;;5042910;28;20123;-73
2021/07/14 08:23:54;;;;;;;7.53;1.55;;;22.60;96.70;;;;;;5043959;28;20498;-73
2021/07/14 08:26:22;;;;;;;13.00;2.60;;;22.70;96.70;;;;;;5055344;28;20041;-72
2021/07/14 08:28:51;;;;;;;6.43;1.65;;;22.70;96.70;;;;;;5062194;28;20048;-73
2021/07/14 08:31:19;;;;;;;8.05;1.50;;;23.00;96.70;;;;;;5041752;28;20372;-73
2021/07/14 08:33:49;;;;;;;6.22;1.58;;;23.10;96.70;;;;;;5061899;28;20040;-73
2021/07/14 08:36:17;;;;;;;6.90;1.45;;;23.20;96.70;;;;;;5059618;28;20040;-72
2021/07/14 08:38:45;;;;;;;6.57;1.52;;;23.30;96.70;;;;;;5062261;28;20033;-72
2021/07/14 08:41:16;;;;;;;6.30;1.80;;;23.30;96.70;;;;;;5040546;28;20048;-72
2021/07/14 08:43:44;;;;;;;7.05;1.58;;;23.20;96.70;;;;;;5059313;28;20302;-72
2021/07/14 08:46:13;;;;;;;10.48;2.25;;;23.20;96.70;;;;;;5039220;28;20041;-72
2021/07/14 08:48:43;;;;;;;9.88;1.98;;;23.30;96.70;;;;;;5062298;28;20051;-72
2021/07/14 08:51:15;;;;;;;4.13;0.88;;;23.60;96.70;;;;;;5059950;28;20305;-72
2021/07/14 08:53:47;;;;;;;6.38;1.35;;;23.60;96.70;;;;;;5060989;28;20558;-72
2021/07/14 08:56:15;;;;;;;7.80;1.90;;;23.70;96.70;;;;;;5027088;28;20079;-72
2021/07/14 08:58:44;;;;;;;7.88;1.58;;;23.80;96.70;;;;;;5061426;28;20505;-72
2021/07/14 09:01:12;;;;;;;9.27;1.70;;;23.80;96.70;;;;;;5059960;28;20079;-71
2021/07/14 09:03:40;;;;;;;7.40;1.75;;;23.80;96.70;;;;;;5046961;28;20041;-72
2021/07/14 09:06:09;;;;;;;7.53;1.48;;;23.80;96.70;;;;;;5058883;28;20040;-71
2021/07/14 09:08:39;;;;;;;10.43;1.60;;;23.90;96.70;;;;;;5067067;28;20055;-72
2021/07/14 09:11:07;;;;;;;9.23;1.83;;;23.80;96.70;;;;;;5058316;28;20048;-72
2021/07/14 09:13:36;;;;;;;10.15;1.67;;;23.90;96.70;;;;;;5065279;28;20047;-71
2021/07/14 09:16:05;;;;;;;6.82;1.50;;;24.10;96.70;;;;;;5039876;28;20045;-71
2021/07/14 09:18:34;;;;;;;8.75;2.10;;;24.00;96.70;;;;;;5063802;28;20036;-71
2021/07/14 09:21:16;;;;;;;6.70;1.58;;;24.00;96.70;;;;;;5045027;28;20122;-72
2021/07/14 09:23:46;;;;;;;8.60;1.63;;;24.00;96.50;;;;;;5057462;28;20124;-72
2021/07/14 09:26:14;;;;;;;7.15;1.73;;;23.90;96.10;;;;;;5058540;28;20045;-72
2021/07/14 09:28:42;;;;;;;6.60;1.75;;;23.80;96.10;;;;;;5059953;28;20437;-71
2021/07/14 09:31:13;;;;;;;7.65;1.65;;;23.70;96.70;;;;;;5045771;28;20434;-72
2021/07/14 09:33:43;;;;;;;7.15;2.10;;;23.90;96.70;;;;;;5045479;28;20106;-71
2021/07/14 09:36:12;;;;;;;7.50;1.27;;;23.90;96.50;;;;;;5065259;28;20032;-72
2021/07/14 09:38:40;;;;;;;8.15;1.25;;;23.90;96.00;;;;;;5040716;28;20140;-72
2021/07/14 09:41:11;;;;;;;7.55;1.20;;;23.80;96.00;;;;;;5045186;28;20047;-72
2021/07/14 09:43:41;;;;;;;8.10;1.45;;;23.80;96.40;;;;;;5044890;28;20107;-71
2021/07/14 09:46:10;;;;;;;6.63;1.38;;;23.90;96.50;;;;;;5062911;28;20036;-72
2021/07/14 09:48:40;;;;;;;7.57;1.35;;;23.90;96.70;;;;;;5041455;28;20048;-71
2021/07/14 09:51:12;;;;;;;5.03;1.20;;;24.20;96.20;;;;;;5043591;28;20072;-72
2021/07/14 09:53:42;;;;;;;6.82;1.50;;;24.10;94.80;;;;;;5060001;28;20044;-71
2021/07/14 09:56:14;;;;;;;10.45;1.40;;;24.10;95.80;;;;;;5048027;28;20122;-72
2021/07/14 09:58:43;;;;;;;8.13;1.67;;;24.20;95.50;;;;;;5060911;28;20133;-71
2021/07/14 10:01:13;;;;;;;5.40;1.55;;;24.10;96.00;;;;;;5061761;28;20074;-71
2021/07/14 10:03:49;;;;;;;6.60;1.35;;;24.10;96.30;;;;;;5045736;28;20055;-71
2021/07/14 10:06:19;;;;;;;5.43;0.93;;;24.10;95.70;;;;;;5044513;28;20106;-72
2021/07/14 10:08:48;;;;;;;7.10;1.50;;;24.00;95.20;;;;;;5041678;28;20584;-72
2021/07/14 10:11:19;;;;;;;7.15;1.58;;;24.00;95.40;;;;;;5061684;28;20542;-72
2021/07/14 10:13:57;;;;;;;6.30;1.65;;;24.20;94.80;;;;;;5042841;28;20033;-71
2021/07/14 10:16:27;;;;;;;9.13;1.73;;;24.10;95.50;;;;;;5062740;28;20129;-72
2021/07/14 10:19:01;;;;;;;4.63;1.00;;;24.10;95.50;;;;;;5062725;28;20109;-72
2021/07/14 10:21:31;;;;;;;5.60;1.10;;;24.20;94.30;;;;;;5058877;28;20040;-72
2021/07/14 10:24:00;;;;;;;5.45;1.00;;;24.20;93.60;;;;;;5057865;28;20091;-72
2021/07/14 10:26:32;;;;;;;6.03;1.23;;;24.30;93.10;;;;;;5061317;28;20094;-72
2021/07/14 10:29:01;;;;;;;8.07;1.42;;;24.40;93.80;;;;;;5058825;28;20298;-72
2021/07/14 10:31:30;;;;;;;8.07;1.30;;;24.30;93.40;;;;;;5044534;28;20048;-72
2021/07/14 10:33:59;;;;;;;5.00;1.00;;;24.30;94.70;;;;;;5039748;28;20045;-71
2021/07/14 10:36:29;;;;;;;5.75;1.35;;;24.40;94.30;;;;;;5047960;28;20517;-72
2021/07/14 10:39:02;;;;;;;6.57;1.10;;;24.50;94.80;;;;;;5061587;28;20399;-72
2021/07/14 10:41:32;;;;;;;5.68;0.95;;;24.40;93.80;;;;;;5045266;28;20036;-72
2021/07/14 10:44:01;;;;;;;6.72;1.30;;;24.50;93.70;;;;;;5061229;28;20557;-72
2021/07/14 10:46:30;;;;;;;5.53;1.45;;;24.60;94.80;;;;;;5057969;28;20048;-71
2021/07/14 10:49:00;;;;;;;6.13;1.38;;;24.80;95.60;;;;;;5060599;28;20115;-72
2021/07/14 10:51:30;;;;;;;8.45;2.00;;;24.80;94.70;;;;;;5042541;28;20059;-72
2021/07/14 10:54:02;;;;;;;4.63;1.20;;;24.80;94.50;;;;;;5042765;28;20476;-72
2021/07/14 10:56:35;;;;;;;5.15;1.60;;;24.60;94.90;;;;;;5024410;28;20048;-72
2021/07/14 10:59:04;;;;;;;6.68;1.30;;;24.40;94.50;;;;;;5060191;28;20056;-72
2021/07/14 11:01:40;;;;;;;8.07;1.63;;;24.50;95.50;;;;;;5058631;28;20045;-72
2021/07/14 11:04:29;;;;;;;6.97;1.52;;;24.40;96.00;;;;;;5060924;28;20071;-72
2021/07/14 11:07:00;;;;;;;5.18;1.20;;;24.50;95.60;;;;;;5046264;28;20391;-71
2021/07/14 11:09:32;;;;;;;6.72;1.35;;;24.50;94.90;;;;;;5042818;28;20059;-71
2021/07/14 11:12:03;;;;;;;6.25;1.33;;;24.70;94.70;;;;;;5058825;28;20506;-72
2021/07/14 11:14:36;;;;;;;9.88;1.52;;;24.80;95.30;;;;;;5042854;28;20398;-72
2021/07/14 11:17:05;;;;;;;7.28;1.30;;;24.70;94.40;;;;;;5058821;28;20036;-72
2021/07/14 11:19:45;;;;;;;8.52;2.05;;;24.80;95.20;;;;;;5040698;28;20536;-72
2021/07/14 11:22:14;;;;;;;8.63;1.85;;;25.00;94.90;;;;;;5058686;28;20040;-72
2021/07/14 11:24:56;;;;;;;7.72;1.15;;;24.90;94.90;;;;;;5059484;28;20045;-71
2021/07/14 11:27:57;;;;;;;6.70;1.25;;;25.10;94.30;;;;;;5042116;28;20041;-72
2021/07/14 11:30:44;;;;;;;5.13;1.27;;;25.00;94.20;;;;;;5060595;28;20050;-72
2021/07/14 11:33:23;;;;;;;;;;;25.20;93.40;;;;;;5060104;28;20484;-72
2021/07/14 11:35:53;;;;;;;4.70;1.45;;;25.20;92.70;;;;;;5043190;28;19928;-71
2021/07/14 11:38:25;;;;;;;7.15;1.50;;;25.20;92.70;;;;;;5052068;28;20044;-72
2021/07/14 11:40:55;;;;;;;7.57;1.40;;;24.90;94.20;;;;;;5044549;28;20074;-72
2021/07/14 11:43:28;;;;;;;5.95;1.33;;;25.20;94.10;;;;;;5039140;28;20063;-72
2021/07/14 11:46:04;;;;;;;5.78;1.42;;;24.90;95.50;;;;;;5055938;28;20049;-72
2021/07/14 11:48:34;;;;;;;7.85;1.63;;;24.70;95.50;;;;;;5058907;28;20409;-71
2021/07/14 11:51:06;;;;;;;6.97;1.27;;;24.50;95.50;;;;;;5045413;28;20112;-71
2021/07/14 11:53:40;;;;;;;9.02;2.13;;;24.60;96.10;;;;;;5058405;28;20093;-72
2021/07/14 11:56:11;;;;;;;6.75;1.38;;;24.50;96.30;;;;;;5061504;28;20543;-74
2021/07/14 11:59:00;;;;;;;6.88;1.42;;;24.30;96.30;;;;;;5059680;28;20046;-72
2021/07/14 12:01:58;;;;;;;7.40;2.00;;;24.60;96.60;;;;;;5058529;28;20566;-73
2021/07/14 12:04:29;;;;;;;5.75;1.73;;;24.90;95.50;;;;;;5060030;28;20478;-72
2021/07/14 12:07:06;;;;;;;7.53;1.50;;;25.30;94.40;;;;;;5054909;28;20044;-72
2021/07/14 12:09:39;;;;;;;;;;;25.30;94.00;;;;;;5046098;28;20040;-72
2021/07/14 12:12:15;;;;;;;7.10;1.40;;;25.30;93.90;;;;;;5056734;28;19928;-72
2021/07/14 12:14:48;;;;;;;8.10;1.38;;;25.20;93.90;;;;;;5060888;28;20193;-73
2021/07/14 12:17:18;;;;;;;6.80;1.73;;;25.30;92.60;;;;;;5043299;28;20143;-71
2021/07/14 12:19:49;;;;;;;5.78;1.20;;;25.40;92.50;;;;;;5061548;28;20174;-71
2021/07/14 12:22:19;;;;;;;9.35;1.50;;;25.40;91.60;;;;;;5059842;28;20045;-71
2021/07/14 12:24:51;;;;;;;5.03;1.27;;;25.50;91.30;;;;;;5054090;28;20048;-70
2021/07/14 12:27:21;;;;;;;5.47;1.23;;;25.60;93.00;;;;;;5058645;28;20049;-71
2021/07/14 12:29:53;;;;;;;5.70;1.45;;;25.90;91.80;;;;;;5053812;28;20060;-71
2021/07/14 12:32:36;;;;;;;3.25;1.10;;;25.70;89.00;;;;;;5057502;28;20557;-71
2021/07/14 12:35:08;;;;;;;6.10;1.38;;;25.60;91.60;;;;;;5059519;28;20044;-71
2021/07/14 12:37:42;;;;;;;3.78;1.00;;;25.90;91.50;;;;;;5063460;28;20102;-71
2021/07/14 12:40:11;;;;;;;4.82;1.40;;;25.80;91.30;;;;;;5064026;28;20561;-71
2021/07/14 12:42:44;;;;;;;7.68;1.77;;;25.60;92.80;;;;;;5061692;28;20086;-71
2021/07/14 12:45:23;;;;;;;6.82;1.27;;;26.00;92.40;;;;;;5050491;28;20055;-71
2021/07/14 12:47:52;;;;;;;3.75;1.10;;;25.70;91.40;;;;;;5045520;28;20103;-71
2021/07/14 12:50:23;;;;;;;2.58;0.65;;;25.70;90.50;;;;;;5026738;28;20049;-71
2021/07/14 12:52:55;;;;;;;5.47;0.80;;;25.70;88.70;;;;;;5063833;28;20052;-71
2021/07/14 12:55:25;;;;;;;5.63;1.13;;;25.90;91.20;;;;;;5044214;28;20060;-71
2021/07/14 12:58:00;;;;;;;6.72;1.58;;;26.10;91.20;;;;;;5061709;28;20044;-71
2021/07/14 13:00:29;;;;;;;7.40;1.75;;;25.80;92.60;;;;;;5063970;28;20044;-71
2021/07/14 13:03:02;;;;;;;6.88;1.25;;;25.80;93.20;;;;;;5061606;28;20242;-71
2021/07/14 13:05:31;;;;;;;2.88;0.85;;;25.80;93.00;;;;;;5059751;28;20036;-71
2021/07/14 13:08:04;;;;;;;5.68;1.70;;;26.00;90.90;;;;;;5067267;28;20110;-71